Time;durP1;ratioP1;P1;durP2;ratioP2;P2;SDS_P1;SDS_P2;PMS_P1;PMS_P2;Temp;Humidity;BMP_temperature;BMP_pressure;BME280_temperature;BME280_humidity;BME280_pressure;Samples;Min_cycle;Max_cycle;Signal;HPM_P1;HPM_P2
2024/02/21 00:00:30;;;;;;;13.80;5.90;;;18.70;67.10;;;;;;5071286;28;20850;-76
2024/02/21 00:03:02;;;;;;;11.60;5.67;;;18.80;67.10;;;;;;5070985;28;20534;-76
2024/02/21 00:05:30;;;;;;;11.23;6.10;;;18.70;67.10;;;;;;5069630;28;20450;-75
2024/02/21 00:07:59;;;;;;;8.97;5.07;;;18.80;67.20;;;;;;5071788;28;20461;-76
2024/02/21 00:10:27;;;;;;;11.90;6.27;;;18.70;67.20;;;;;;5072216;28;20437;-76
2024/02/21 00:12:55;;;;;;;11.33;6.10;;;18.80;67.20;;;;;;5064404;28;20805;-76
2024/02/21 00:15:23;;;;;;;8.30;5.10;;;18.80;67.10;;;;;;5071906;28;20525;-77
2024/02/21 00:17:51;;;;;;;11.30;6.03;;;18.80;67.30;;;;;;5071774;28;20515;-76
2024/02/21 00:20:20;;;;;;;9.20;6.10;;;18.80;67.30;;;;;;5067226;28;20717;-77
2024/02/21 00:22:48;;;;;;;9.50;5.63;;;18.80;67.30;;;;;;5071850;28;20477;-77
2024/02/21 00:25:16;;;;;;;9.00;5.53;;;18.80;67.30;;;;;;5068103;28;20477;-76
2024/02/21 00:27:44;;;;;;;11.33;6.33;;;18.70;67.30;;;;;;5064030;28;20462;-75
2024/02/21 00:30:13;;;;;;;12.27;6.43;;;18.80;67.60;;;;;;5071880;28;20468;-76
2024/02/21 00:32:41;;;;;;;11.43;6.10;;;18.80;67.50;;;;;;5071923;28;20444;-76
2024/02/21 00:35:09;;;;;;;12.23;6.40;;;18.70;67.50;;;;;;5071376;28;20456;-74
2024/02/21 00:37:39;;;;;;;11.63;6.30;;;18.70;67.40;;;;;;5062589;28;20561;-74
2024/02/21 00:40:08;;;;;;;12.03;5.97;;;18.70;67.60;;;;;;5065381;28;20544;-74
2024/02/21 00:42:36;;;;;;;12.43;6.40;;;18.80;67.70;;;;;;5071087;28;20473;-76
2024/02/21 00:45:04;;;;;;;8.97;5.67;;;18.80;67.70;;;;;;5065115;28;20536;-75
2024/02/21 00:47:32;;;;;;;10.43;6.23;;;18.70;67.50;;;;;;5071420;28;20527;-76
2024/02/21 00:50:00;;;;;;;10.43;6.13;;;18.80;67.80;;;;;;5071701;28;20503;-76
2024/02/21 00:52:28;;;;;;;11.20;6.50;;;18.70;67.80;;;;;;5072107;28;20541;-75
2024/02/21 00:54:57;;;;;;;11.17;6.67;;;18.70;67.80;;;;;;5072058;28;20453;-75
2024/02/21 00:57:25;;;;;;;10.43;6.03;;;18.70;67.70;;;;;;5072313;28;20496;-75
2024/02/21 00:59:53;;;;;;;13.47;6.10;;;18.70;67.90;;;;;;5070326;28;20553;-76
2024/02/21 01:02:21;;;;;;;8.03;6.40;;;18.80;68.00;;;;;;5071381;28;20449;-76
2024/02/21 01:04:49;;;;;;;9.70;6.80;;;18.70;68.00;;;;;;5073894;28;20456;-75
2024/02/21 01:07:17;;;;;;;11.37;6.53;;;18.70;67.80;;;;;;5075394;28;20441;-76
2024/02/21 01:09:45;;;;;;;11.57;6.60;;;18.70;67.70;;;;;;5075536;28;20464;-76
2024/02/21 01:12:14;;;;;;;17.10;6.40;;;18.70;67.90;;;;;;5075196;28;20464;-76
2024/02/21 01:14:42;;;;;;;12.60;6.53;;;18.70;67.90;;;;;;5074620;28;20430;-76
2024/02/21 01:17:10;;;;;;;11.67;6.67;;;18.70;67.80;;;;;;5074344;28;20481;-76
2024/02/21 01:19:38;;;;;;;10.87;6.40;;;18.70;68.00;;;;;;5074678;28;20480;-76
2024/02/21 01:22:06;;;;;;;11.30;6.33;;;18.70;67.70;;;;;;5057165;28;20561;-76
2024/02/21 01:24:34;;;;;;;15.27;6.37;;;18.70;68.00;;;;;;5063233;28;20527;-75
2024/02/21 01:27:02;;;;;;;12.67;6.90;;;18.70;68.00;;;;;;5071254;28;20447;-76
2024/02/21 01:29:31;;;;;;;10.00;6.10;;;18.70;67.90;;;;;;5070884;28;20445;-76
2024/02/21 01:31:59;;;;;;;9.47;6.50;;;18.70;67.90;;;;;;5074981;28;20511;-76
2024/02/21 01:34:28;;;;;;;13.53;7.97;;;18.70;67.80;;;;;;5074137;28;20488;-76
2024/02/21 01:37:04;;;;;;;8.70;6.40;;;18.70;67.90;;;;;;5074896;28;20445;-76
2024/02/21 01:39:32;;;;;;;13.27;6.67;;;18.70;68.00;;;;;;5075089;28;20517;-76
2024/02/21 01:42:00;;;;;;;9.83;6.53;;;18.70;68.00;;;;;;5074591;28;20442;-76
2024/02/21 01:44:28;;;;;;;10.90;6.60;;;18.70;68.00;;;;;;5074463;28;20469;-76
2024/02/21 01:46:58;;;;;;;8.90;6.13;;;18.70;67.90;;;;;;5074760;28;20477;-77
2024/02/21 01:49:26;;;;;;;14.60;7.13;;;18.70;67.70;;;;;;5074524;28;20442;-76
2024/02/21 01:51:54;;;;;;;10.30;6.97;;;18.70;68.00;;;;;;5074301;28;20440;-76
2024/02/21 01:54:22;;;;;;;12.90;6.70;;;18.70;67.90;;;;;;5054606;28;20474;-75
2024/02/21 01:56:50;;;;;;;11.40;6.40;;;18.70;67.90;;;;;;5073165;28;20511;-76
2024/02/21 01:59:18;;;;;;;9.90;7.10;;;18.70;68.00;;;;;;5074518;28;20493;-77
2024/02/21 02:01:47;;;;;;;9.47;6.80;;;18.70;68.20;;;;;;5074337;28;20488;-76
2024/02/21 02:04:16;;;;;;;10.70;6.70;;;18.70;68.00;;;;;;5074385;28;20461;-76
2024/02/21 02:06:44;;;;;;;10.53;6.20;;;18.70;67.90;;;;;;5074296;28;20442;-76
2024/02/21 02:09:12;;;;;;;14.67;7.27;;;18.70;68.00;;;;;;5073767;28;20511;-76
2024/02/21 02:11:40;;;;;;;10.13;6.93;;;18.70;67.90;;;;;;5076739;28;20505;-77
2024/02/21 02:14:08;;;;;;;11.67;6.43;;;18.70;68.00;;;;;;5078352;28;20454;-76
2024/02/21 02:16:36;;;;;;;13.10;7.00;;;18.70;68.00;;;;;;5081570;28;20507;-77
2024/02/21 02:19:04;;;;;;;12.20;6.77;;;18.60;67.90;;;;;;5076813;28;20568;-77
2024/02/21 02:21:33;;;;;;;7.90;6.23;;;18.70;68.00;;;;;;5059792;28;20446;-76
2024/02/21 02:24:03;;;;;;;10.60;6.63;;;18.60;67.90;;;;;;5074036;28;20512;-76
2024/02/21 02:26:31;;;;;;;8.93;6.67;;;18.60;67.90;;;;;;5074173;28;20433;-75
2024/02/21 02:28:59;;;;;;;10.83;6.63;;;18.60;68.00;;;;;;5073414;28;20465;-77
2024/02/21 02:31:27;;;;;;;11.07;7.30;;;18.70;67.90;;;;;;5066640;28;20469;-77
2024/02/21 02:33:55;;;;;;;9.90;6.60;;;18.60;68.00;;;;;;5070924;28;20471;-76
2024/02/21 02:36:23;;;;;;;11.70;7.13;;;18.60;68.10;;;;;;5068224;28;20469;-76
2024/02/21 02:38:51;;;;;;;10.47;6.83;;;18.60;67.90;;;;;;5073281;28;20552;-76
2024/02/21 02:41:20;;;;;;;10.67;6.83;;;18.60;68.10;;;;;;5072412;28;20486;-77
2024/02/21 02:43:48;;;;;;;13.60;6.23;;;18.60;67.80;;;;;;5071831;28;20465;-77
2024/02/21 02:46:16;;;;;;;10.83;6.30;;;18.60;68.10;;;;;;5068560;28;20438;-76
2024/02/21 02:48:45;;;;;;;11.10;7.10;;;18.60;68.20;;;;;;5072956;28;20460;-77
2024/02/21 02:51:12;;;;;;;11.23;6.80;;;18.60;68.10;;;;;;5073001;28;20433;-76
2024/02/21 02:53:40;;;;;;;11.30;6.20;;;18.60;68.40;;;;;;5074285;28;20530;-76
2024/02/21 02:56:08;;;;;;;11.23;7.27;;;18.60;68.10;;;;;;5072811;28;20470;-76
2024/02/21 02:58:38;;;;;;;12.07;7.23;;;18.60;68.00;;;;;;5073264;28;20465;-77
2024/02/21 03:01:07;;;;;;;9.43;6.13;;;18.60;68.10;;;;;;5071725;28;20438;-76
2024/02/21 03:03:36;;;;;;;13.23;6.60;;;18.60;68.00;;;;;;5072786;28;20853;-76
2024/02/21 03:06:04;;;;;;;7.70;6.00;;;18.60;68.00;;;;;;5072937;28;20437;-76
2024/02/21 03:08:34;;;;;;;9.97;6.50;;;18.60;68.10;;;;;;5071043;28;20483;-75
2024/02/21 03:11:02;;;;;;;9.90;6.17;;;18.60;68.10;;;;;;5064942;28;20450;-77
2024/02/21 03:13:29;;;;;;;11.17;6.70;;;18.60;68.10;;;;;;5067852;28;20444;-76
2024/02/21 03:15:59;;;;;;;8.40;6.70;;;18.60;68.20;;;;;;5064714;28;20500;-77
2024/02/21 03:18:27;;;;;;;9.40;6.00;;;18.60;68.10;;;;;;5072480;28;20462;-76
2024/02/21 03:20:55;;;;;;;11.80;6.60;;;18.60;68.10;;;;;;5070394;28;20441;-77
2024/02/21 03:23:23;;;;;;;8.20;5.87;;;18.60;68.10;;;;;;5069045;28;20521;-77
2024/02/21 03:25:51;;;;;;;12.27;6.40;;;18.60;68.10;;;;;;5069527;28;20509;-77
2024/02/21 03:28:19;;;;;;;10.07;6.40;;;18.60;68.20;;;;;;5068829;28;20474;-76
2024/02/21 03:30:47;;;;;;;8.83;6.00;;;18.60;68.10;;;;;;5069914;28;20438;-76
2024/02/21 03:33:16;;;;;;;13.30;7.50;;;18.60;68.40;;;;;;5072651;28;20495;-75
2024/02/21 03:35:44;;;;;;;12.50;6.70;;;18.50;68.20;;;;;;5070811;28;20493;-76
2024/02/21 03:38:12;;;;;;;11.00;6.80;;;18.50;68.40;;;;;;5071565;28;20478;-76
2024/02/21 03:40:40;;;;;;;14.20;6.20;;;18.50;68.30;;;;;;5075011;28;20444;-75
2024/02/21 03:43:08;;;;;;;10.07;6.40;;;18.50;68.40;;;;;;5071970;28;20466;-75
2024/02/21 03:45:36;;;;;;;16.03;8.90;;;18.50;68.50;;;;;;5071885;28;20846;-76
2024/02/21 03:48:04;;;;;;;10.80;6.60;;;18.50;68.50;;;;;;5071547;28;20521;-76
2024/02/21 03:50:34;;;;;;;14.17;7.27;;;18.50;68.40;;;;;;5067510;28;20480;-76
2024/02/21 03:53:02;;;;;;;12.13;7.10;;;18.50;68.50;;;;;;5072534;28;20441;-76
2024/02/21 03:55:31;;;;;;;12.43;7.30;;;18.50;68.50;;;;;;5072527;28;20483;-77
2024/02/21 03:57:58;;;;;;;12.30;7.30;;;18.50;68.70;;;;;;5071949;28;20472;-77
2024/02/21 04:00:27;;;;;;;9.93;7.30;;;18.50;68.70;;;;;;5072379;28;20452;-75
2024/02/21 04:02:55;;;;;;;12.87;7.70;;;18.50;68.60;;;;;;5071050;28;20541;-76
2024/02/21 04:05:23;;;;;;;9.23;7.20;;;18.50;68.80;;;;;;5072184;28;20443;-75
2024/02/21 04:07:53;;;;;;;12.23;7.77;;;18.50;68.70;;;;;;5071764;28;20537;-75
2024/02/21 04:10:22;;;;;;;11.97;7.70;;;18.50;68.70;;;;;;5072018;28;20461;-76
2024/02/21 04:12:50;;;;;;;11.80;7.80;;;18.50;68.70;;;;;;5072189;28;20441;-76
2024/02/21 04:15:18;;;;;;;12.13;7.80;;;18.40;68.70;;;;;;5072223;28;20423;-75
2024/02/21 04:17:46;;;;;;;12.20;7.90;;;18.40;68.70;;;;;;5071228;28;20541;-77
2024/02/21 04:20:15;;;;;;;12.70;7.67;;;18.40;69.00;;;;;;5072169;28;20441;-76
2024/02/21 04:22:44;;;;;;;13.53;7.73;;;18.50;68.70;;;;;;5072299;28;20443;-76
2024/02/21 04:25:13;;;;;;;10.80;7.63;;;18.40;68.80;;;;;;5063743;28;20469;-76
2024/02/21 04:27:41;;;;;;;12.90;8.30;;;18.40;69.00;;;;;;5070613;28;20468;-75
2024/02/21 04:30:10;;;;;;;12.30;8.10;;;18.40;68.90;;;;;;5071918;28;20537;-75
2024/02/21 04:32:38;;;;;;;13.97;8.07;;;18.40;68.80;;;;;;5070369;28;20476;-76
2024/02/21 04:35:07;;;;;;;11.97;7.40;;;18.40;68.90;;;;;;5072078;28;20852;-76
2024/02/21 04:37:35;;;;;;;14.00;7.60;;;18.40;68.90;;;;;;5070465;28;21052;-76
2024/02/21 04:40:03;;;;;;;11.23;7.53;;;18.40;69.20;;;;;;5075442;28;20434;-76
2024/02/21 04:42:32;;;;;;;12.47;7.07;;;18.40;69.10;;;;;;5075427;28;20433;-76
2024/02/21 04:45:00;;;;;;;9.40;6.90;;;18.40;69.00;;;;;;5075376;28;20512;-77
2024/02/21 04:47:28;;;;;;;11.77;7.10;;;18.40;69.00;;;;;;5075319;28;20520;-76
2024/02/21 04:49:56;;;;;;;12.33;7.60;;;18.40;68.80;;;;;;5074646;28;20433;-75
2024/02/21 04:52:24;;;;;;;11.97;7.90;;;18.40;69.00;;;;;;5075483;28;20433;-76
2024/02/21 04:54:51;;;;;;;9.03;7.07;;;18.40;69.00;;;;;;5074751;28;20437;-75
2024/02/21 04:57:19;;;;;;;10.67;6.90;;;18.40;69.30;;;;;;5068292;28;20516;-76
2024/02/21 04:59:48;;;;;;;10.43;7.30;;;18.40;69.30;;;;;;5065540;28;20441;-75
2024/02/21 05:02:16;;;;;;;9.27;6.97;;;18.40;69.10;;;;;;5068252;28;20487;-76
2024/02/21 05:04:44;;;;;;;11.60;7.60;;;18.40;69.10;;;;;;5075527;28;20430;-76
2024/02/21 05:07:12;;;;;;;11.17;7.57;;;18.40;69.00;;;;;;5064091;28;20457;-75
2024/02/21 05:09:40;;;;;;;12.13;7.23;;;18.40;69.10;;;;;;5074786;28;20444;-75
2024/02/21 05:12:08;;;;;;;12.23;7.30;;;18.40;69.20;;;;;;5060327;28;20532;-76
2024/02/21 05:14:37;;;;;;;9.77;6.70;;;18.40;69.10;;;;;;5074947;28;20512;-76
2024/02/21 05:17:06;;;;;;;10.60;7.07;;;18.40;69.20;;;;;;5074831;28;20453;-75
2024/02/21 05:19:35;;;;;;;9.27;6.27;;;18.40;68.80;;;;;;5075326;28;20504;-76
2024/02/21 05:22:03;;;;;;;10.17;7.13;;;18.40;69.20;;;;;;5074738;28;20538;-76
2024/02/21 05:24:31;;;;;;;9.07;6.40;;;18.40;69.20;;;;;;5074994;28;20468;-76
2024/02/21 05:26:59;;;;;;;10.70;7.00;;;18.40;69.20;;;;;;5068093;28;20508;-76
2024/02/21 05:29:27;;;;;;;9.80;6.47;;;18.40;69.20;;;;;;5075081;28;20477;-75
2024/02/21 05:31:58;;;;;;;10.87;6.30;;;18.40;69.50;;;;;;5074775;28;20484;-75
2024/02/21 05:34:28;;;;;;;9.37;6.60;;;18.40;69.30;;;;;;5074424;28;20449;-76
2024/02/21 05:36:57;;;;;;;8.23;6.47;;;18.40;69.30;;;;;;5077432;28;20437;-75
2024/02/21 05:39:25;;;;;;;9.17;6.67;;;18.30;69.50;;;;;;5066810;28;20508;-76
2024/02/21 05:41:53;;;;;;;10.20;5.73;;;18.30;69.50;;;;;;5073367;28;20449;-75
2024/02/21 05:44:22;;;;;;;9.83;6.20;;;18.30;69.40;;;;;;5075411;28;20911;-76
2024/02/21 05:46:50;;;;;;;10.50;5.80;;;18.30;69.40;;;;;;5075306;28;20560;-76
2024/02/21 05:49:18;;;;;;;8.67;6.17;;;18.30;69.60;;;;;;5072887;28;20473;-77
2024/02/21 05:51:47;;;;;;;8.77;5.97;;;18.30;69.30;;;;;;5073519;28;20468;-76
2024/02/21 05:54:15;;;;;;;9.93;7.10;;;18.30;69.50;;;;;;5068218;28;20488;-76
2024/02/21 05:56:45;;;;;;;7.83;5.90;;;18.30;69.30;;;;;;5074387;28;20529;-75
2024/02/21 05:59:13;;;;;;;6.80;6.10;;;18.40;69.50;;;;;;5065754;28;20450;-76
2024/02/21 06:01:41;;;;;;;7.10;5.43;;;18.30;69.60;;;;;;5069805;28;20453;-76
2024/02/21 06:04:10;;;;;;;6.43;5.60;;;18.30;69.70;;;;;;5074506;28;20520;-75
2024/02/21 06:06:38;;;;;;;7.10;5.50;;;18.30;69.40;;;;;;5069922;28;20485;-75
2024/02/21 06:09:07;;;;;;;6.23;5.30;;;18.30;69.40;;;;;;5073522;28;20472;-76
2024/02/21 06:11:37;;;;;;;8.23;5.50;;;18.30;69.50;;;;;;5069782;28;20496;-76
2024/02/21 06:14:05;;;;;;;6.03;5.30;;;18.30;69.60;;;;;;5074700;28;20506;-76
2024/02/21 06:16:34;;;;;;;7.23;5.70;;;18.30;69.70;;;;;;5074542;28;20513;-76
2024/02/21 06:19:03;;;;;;;9.03;5.87;;;18.30;69.60;;;;;;5066074;28;20554;-76
2024/02/21 06:21:33;;;;;;;7.23;5.20;;;18.30;69.50;;;;;;5074707;28;20433;-76
2024/02/21 06:24:01;;;;;;;5.10;4.60;;;18.30;69.70;;;;;;5074124;28;20829;-75
2024/02/21 06:26:30;;;;;;;5.70;5.07;;;18.30;69.60;;;;;;5062515;22;20596;-76
2024/02/21 06:28:59;;;;;;;5.83;5.23;;;18.30;69.70;;;;;;5009549;28;20456;-76
2024/02/21 06:31:28;;;;;;;5.90;4.77;;;18.30;69.60;;;;;;5014067;28;20527;-77
2024/02/21 06:33:56;;;;;;;7.30;5.00;;;18.30;69.80;;;;;;5014057;28;20523;-78
2024/02/21 06:36:24;;;;;;;6.73;5.20;;;18.30;69.70;;;;;;5014681;28;20527;-78
2024/02/21 06:38:52;;;;;;;5.10;4.47;;;18.40;70.40;;;;;;5013344;28;20518;-78
2024/02/21 06:41:20;;;;;;;7.27;5.90;;;18.30;69.60;;;;;;5009421;28;20479;-77
2024/02/21 06:43:49;;;;;;;4.60;4.20;;;18.30;69.50;;;;;;5013695;28;20450;-78
2024/02/21 06:46:24;;;;;;;5.20;4.70;;;18.30;69.70;;;;;;5013858;28;20467;-79
2024/02/21 06:48:53;;;;;;;9.93;4.90;;;18.30;69.90;;;;;;5013501;28;20440;-78
2024/02/21 06:51:21;;;;;;;5.03;4.53;;;18.40;69.90;;;;;;5013496;28;20464;-77
2024/02/21 06:53:49;;;;;;;5.13;4.63;;;18.40;69.90;;;;;;5013246;28;20440;-76
2024/02/21 06:56:17;;;;;;;9.80;4.83;;;18.40;69.90;;;;;;5012881;28;20520;-78
2024/02/21 06:58:45;;;;;;;5.63;5.07;;;18.30;69.90;;;;;;5008744;28;20445;-78
2024/02/21 07:01:14;;;;;;;5.17;4.50;;;18.30;70.40;;;;;;5013250;28;20443;-78
2024/02/21 07:03:42;;;;;;;6.10;4.70;;;18.30;69.80;;;;;;5013127;28;20433;-78
2024/02/21 07:06:10;;;;;;;4.80;4.33;;;18.40;69.90;;;;;;5010748;28;20570;-77
2024/02/21 07:08:38;;;;;;;6.17;5.10;;;18.40;70.10;;;;;;5007515;28;20452;-78
2024/02/21 07:11:06;;;;;;;4.70;4.23;;;18.40;69.80;;;;;;5012681;28;20495;-77
2024/02/21 07:13:34;;;;;;;5.90;4.60;;;18.40;70.00;;;;;;5013258;28;20440;-78
2024/02/21 07:16:02;;;;;;;5.20;4.70;;;18.40;69.90;;;;;;5004918;28;20504;-78
2024/02/21 07:18:31;;;;;;;5.17;4.50;;;18.40;69.90;;;;;;5008344;28;20475;-79
2024/02/21 07:20:59;;;;;;;4.23;3.83;;;18.40;69.60;;;;;;5005892;28;20476;-77
2024/02/21 07:23:27;;;;;;;4.70;4.30;;;18.40;70.00;;;;;;5013167;28;20444;-78
2024/02/21 07:25:56;;;;;;;5.17;4.67;;;18.40;70.10;;;;;;5012345;28;20543;-77
2024/02/21 07:28:24;;;;;;;6.53;4.53;;;18.40;70.00;;;;;;5013270;28;20475;-77
2024/02/21 07:30:52;;;;;;;8.73;4.50;;;18.40;69.90;;;;;;5013197;28;20440;-78
2024/02/21 07:33:20;;;;;;;5.07;4.57;;;18.40;69.80;;;;;;5010125;28;20488;-78
2024/02/21 07:35:49;;;;;;;9.90;4.97;;;18.40;69.90;;;;;;5012901;28;20468;-77
2024/02/21 07:38:18;;;;;;;5.43;4.53;;;18.40;70.00;;;;;;5012977;28;20429;-78
2024/02/21 07:40:46;;;;;;;4.70;4.10;;;18.40;70.00;;;;;;5012622;28;20448;-78
2024/02/21 07:43:14;;;;;;;4.60;4.20;;;18.40;70.20;;;;;;5010283;28;20448;-78
2024/02/21 07:45:42;;;;;;;5.23;4.50;;;18.40;69.90;;;;;;5007763;28;20468;-78
2024/02/21 07:48:10;;;;;;;6.13;4.80;;;18.40;69.90;;;;;;5012698;28;20506;-78
2024/02/21 07:50:38;;;;;;;5.27;4.40;;;18.40;70.10;;;;;;5013358;28;20440;-77
2024/02/21 07:53:08;;;;;;;4.93;4.40;;;18.40;69.90;;;;;;5012925;28;20443;-79
2024/02/21 07:55:36;;;;;;;4.27;3.87;;;18.40;70.10;;;;;;5013243;28;20507;-77
2024/02/21 07:58:04;;;;;;;5.00;4.60;;;18.40;70.10;;;;;;5010152;28;20456;-78
2024/02/21 08:00:32;;;;;;;4.50;4.07;;;18.50;70.20;;;;;;5012870;28;20452;-76
2024/02/21 08:03:00;;;;;;;6.40;4.40;;;18.50;70.30;;;;;;5013134;28;20519;-79
2024/02/21 08:05:30;;;;;;;4.93;4.40;;;18.50;70.20;;;;;;5013577;28;20518;-77
2024/02/21 08:07:58;;;;;;;6.07;4.63;;;18.50;70.10;;;;;;5012975;28;20480;-78
2024/02/21 08:10:27;;;;;;;4.57;4.17;;;18.50;70.00;;;;;;5013943;28;20539;-77
2024/02/21 08:12:55;;;;;;;6.30;4.47;;;18.50;70.10;;;;;;5013960;28;20448;-77
2024/02/21 08:15:28;;;;;;;5.23;4.47;;;18.50;70.10;;;;;;5005258;28;20564;-78
2024/02/21 08:17:59;;;;;;;6.53;4.33;;;18.60;70.20;;;;;;5000835;28;20513;-77
2024/02/21 08:20:27;;;;;;;7.30;5.10;;;18.60;70.10;;;;;;4997316;28;20437;-76
2024/02/21 08:22:56;;;;;;;5.70;5.07;;;18.60;70.10;;;;;;5012648;28;20994;-78
2024/02/21 08:25:24;;;;;;;6.17;4.50;;;18.60;69.90;;;;;;5004298;28;20483;-77
2024/02/21 08:27:56;;;;;;;7.40;4.53;;;18.60;69.90;;;;;;5012322;28;20472;-78
2024/02/21 08:30:24;;;;;;;26.67;13.07;;;18.70;70.10;;;;;;5004500;28;20428;-76
2024/02/21 08:32:53;;;;;;;31.57;16.87;;;18.10;65.00;;;;;;5009942;28;20500;-76
2024/02/21 08:35:22;;;;;;;36.07;16.53;;;16.60;69.60;;;;;;5011542;28;20839;-75
2024/02/21 08:37:50;;;;;;;31.20;15.50;;;15.90;75.00;;;;;;5008807;28;20432;-76
2024/02/21 08:40:20;;;;;;;33.87;16.40;;;15.00;79.20;;;;;;5000759;28;20441;-76
2024/02/21 08:42:49;;;;;;;38.37;16.87;;;14.60;85.30;;;;;;5008186;28;20470;-78
2024/02/21 08:45:18;;;;;;;34.87;16.80;;;14.50;84.60;;;;;;5011202;28;20448;-77
2024/02/21 08:47:45;;;;;;;32.03;16.17;;;14.00;89.70;;;;;;5012508;28;20475;-78
2024/02/21 08:50:13;;;;;;;31.87;14.47;;;14.20;93.50;;;;;;5013532;28;20497;-78
2024/02/21 08:52:54;;;;;;;27.60;14.10;;;15.10;93.60;;;;;;5001890;28;21010;-78
2024/02/21 08:55:23;;;;;;;25.37;13.27;;;15.80;91.10;;;;;;5011635;28;20522;-78
2024/02/21 08:57:52;;;;;;;24.27;12.70;;;16.40;88.10;;;;;;5011335;28;20528;-78
2024/02/21 09:00:26;;;;;;;24.43;12.63;;;16.80;84.90;;;;;;5010483;28;20452;-78
2024/02/21 09:02:55;;;;;;;21.73;12.20;;;17.10;81.90;;;;;;5000671;28;20432;-78
2024/02/21 09:05:24;;;;;;;21.17;11.47;;;17.30;79.90;;;;;;5001282;28;20484;-78
2024/02/21 09:07:52;;;;;;;20.70;10.50;;;17.50;78.30;;;;;;5012001;28;21006;-78
2024/02/21 09:10:21;;;;;;;19.70;9.83;;;17.70;77.20;;;;;;5012319;28;20453;-78
2024/02/21 09:12:48;;;;;;;19.67;11.07;;;17.80;75.90;;;;;;5012098;28;20447;-78
2024/02/21 09:15:16;;;;;;;22.80;9.87;;;18.00;75.20;;;;;;5011830;28;20524;-78
2024/02/21 09:17:46;;;;;;;14.73;9.53;;;18.00;74.30;;;;;;5010976;28;20523;-76
2024/02/21 09:20:16;;;;;;;17.97;9.00;;;18.10;73.80;;;;;;5010071;28;20450;-78
2024/02/21 09:22:44;;;;;;;19.00;9.77;;;18.20;73.50;;;;;;5011468;28;20450;-79
2024/02/21 09:25:13;;;;;;;15.80;8.70;;;18.30;72.90;;;;;;5013579;28;20444;-79
2024/02/21 09:27:41;;;;;;;14.23;8.30;;;18.40;72.30;;;;;;5007100;28;20671;-78
2024/02/21 09:30:10;;;;;;;17.00;8.30;;;18.40;72.10;;;;;;5016858;28;20455;-77
2024/02/21 09:32:38;;;;;;;11.83;8.40;;;18.40;71.80;;;;;;5014865;28;20448;-77
2024/02/21 09:35:10;;;;;;;14.57;8.50;;;18.50;71.60;;;;;;5009213;28;20444;-74
2024/02/21 09:37:38;;;;;;;17.80;7.90;;;18.50;71.50;;;;;;5014199;28;20476;-74
2024/02/21 09:40:07;;;;;;;16.33;7.63;;;18.50;71.20;;;;;;5015091;28;20449;-75
2024/02/21 09:42:38;;;;;;;11.67;8.10;;;18.50;70.90;;;;;;5003820;28;20448;-72
2024/02/21 09:45:08;;;;;;;14.77;7.40;;;18.60;71.00;;;;;;5015095;28;20516;-74
2024/02/21 09:47:41;;;;;;;10.60;6.87;;;18.60;70.80;;;;;;5008684;28;20495;-75
2024/02/21 09:50:11;;;;;;;17.10;8.33;;;18.60;70.60;;;;;;5015688;28;20467;-75
2024/02/21 09:52:39;;;;;;;17.17;7.40;;;18.60;70.50;;;;;;5014586;28;20480;-75
2024/02/21 09:55:08;;;;;;;11.43;7.20;;;18.60;70.40;;;;;;5014573;28;20448;-75
2024/02/21 09:57:36;;;;;;;12.03;7.33;;;18.60;70.30;;;;;;5013378;28;20478;-74
2024/02/21 10:00:07;;;;;;;9.23;6.93;;;18.70;70.20;;;;;;5011658;28;20444;-74
2024/02/21 10:02:35;;;;;;;13.70;7.27;;;18.70;70.50;;;;;;5013263;28;20464;-75
2024/02/21 10:05:04;;;;;;;11.40;6.60;;;18.70;70.20;;;;;;5014771;28;20449;-74
2024/02/21 10:07:34;;;;;;;13.03;6.93;;;18.70;70.30;;;;;;5014525;28;20461;-76
2024/02/21 10:10:02;;;;;;;10.63;6.13;;;18.70;70.20;;;;;;5011630;28;20451;-75
2024/02/21 10:12:30;;;;;;;10.90;6.60;;;18.80;70.30;;;;;;5013553;28;20452;-75
2024/02/21 10:15:02;;;;;;;10.10;7.07;;;18.80;70.10;;;;;;5010726;28;20429;-75
2024/02/21 10:17:30;;;;;;;8.20;6.10;;;18.80;70.40;;;;;;5011494;28;20449;-75
2024/02/21 10:20:08;;;;;;;13.20;6.43;;;18.80;70.20;;;;;;5006115;28;20441;-75
2024/02/21 10:22:39;;;;;;;11.50;6.37;;;18.80;70.20;;;;;;5007226;28;20467;-76
2024/02/21 10:25:10;;;;;;;8.87;6.40;;;18.90;70.30;;;;;;5013517;28;20428;-73
2024/02/21 10:27:38;;;;;;;9.50;6.30;;;18.90;70.00;;;;;;5013349;28;20467;-74
2024/02/21 10:30:07;;;;;;;8.47;6.07;;;18.90;70.20;;;;;;5010259;28;20919;-75
2024/02/21 10:32:49;;;;;;;9.17;5.90;;;19.00;69.90;;;;;;5005995;28;20447;-77
2024/02/21 10:35:26;;;;;;;7.60;5.77;;;19.00;69.90;;;;;;5011866;28;20460;-76
2024/02/21 10:37:56;;;;;;;7.07;5.50;;;19.00;70.10;;;;;;5005785;28;20440;-74
2024/02/21 10:40:25;;;;;;;11.43;6.07;;;19.00;69.80;;;;;;5013969;28;20487;-75
2024/02/21 10:42:56;;;;;;;8.00;6.17;;;19.10;69.60;;;;;;5013605;28;20468;-75
2024/02/21 10:45:24;;;;;;;10.00;6.20;;;19.00;69.80;;;;;;5011741;28;20551;-75
2024/02/21 10:47:52;;;;;;;8.90;6.20;;;19.00;69.80;;;;;;5013638;28;20499;-76
2024/02/21 10:50:20;;;;;;;9.33;6.07;;;19.00;70.10;;;;;;5012953;28;20556;-75
2024/02/21 10:52:51;;;;;;;7.93;5.63;;;19.10;70.10;;;;;;5008654;28;20444;-75
2024/02/21 10:55:26;;;;;;;8.07;5.80;;;19.20;70.20;;;;;;5013601;28;20472;-74
2024/02/21 10:57:55;;;;;;;8.53;6.30;;;19.30;70.20;;;;;;5013492;28;20458;-76
2024/02/21 11:00:27;;;;;;;8.13;6.20;;;19.40;70.00;;;;;;5013607;28;20448;-75
2024/02/21 11:02:55;;;;;;;8.10;5.90;;;19.50;70.00;;;;;;5013244;28;20483;-75
2024/02/21 11:05:23;;;;;;;9.30;5.90;;;19.70;69.20;;;;;;5013568;28;20460;-76
2024/02/21 11:07:51;;;;;;;8.80;6.33;;;19.80;69.10;;;;;;5013740;28;20440;-76
2024/02/21 11:10:25;;;;;;;7.90;5.93;;;19.90;68.80;;;;;;5013495;28;20436;-76
2024/02/21 11:12:54;;;;;;;9.77;6.13;;;20.00;68.70;;;;;;5013807;28;20435;-75
2024/02/21 11:15:26;;;;;;;11.13;6.30;;;20.20;68.40;;;;;;5013306;28;20556;-75
2024/02/21 11:17:55;;;;;;;9.87;6.13;;;20.30;67.90;;;;;;5013448;28;20475;-75
2024/02/21 11:20:35;;;;;;;6.73;5.80;;;20.30;67.80;;;;;;5013326;28;20943;-76
2024/02/21 11:23:03;;;;;;;9.03;6.07;;;20.40;67.50;;;;;;5011329;28;20434;-76
2024/02/21 11:25:33;;;;;;;6.93;5.73;;;20.40;67.50;;;;;;5012970;28;20479;-75
2024/02/21 11:28:03;;;;;;;13.17;6.27;;;20.40;67.60;;;;;;4997618;28;20479;-76
2024/02/21 11:30:32;;;;;;;6.93;5.30;;;20.50;67.40;;;;;;5005398;28;20440;-74
2024/02/21 11:33:02;;;;;;;9.90;5.70;;;20.50;67.30;;;;;;5005682;28;20448;-76
2024/02/21 11:35:34;;;;;;;12.70;6.33;;;20.50;67.00;;;;;;5012977;28;20517;-76
2024/02/21 11:38:10;;;;;;;11.37;6.40;;;20.50;66.90;;;;;;5013039;28;20794;-76
2024/02/21 11:40:41;;;;;;;10.30;5.47;;;20.40;67.10;;;;;;5006024;28;20656;-76
2024/02/21 11:43:12;;;;;;;6.70;5.10;;;20.30;67.20;;;;;;5013353;28;20464;-77
2024/02/21 11:45:40;;;;;;;10.30;6.27;;;20.30;67.30;;;;;;5010558;28;20526;-76
2024/02/21 11:48:09;;;;;;;10.50;6.57;;;20.30;67.20;;;;;;5012155;28;20437;-76
2024/02/21 11:50:39;;;;;;;8.70;6.13;;;20.30;67.40;;;;;;5014876;28;20457;-76
2024/02/21 11:53:07;;;;;;;9.93;5.60;;;20.30;67.20;;;;;;5008521;28;20454;-76
2024/02/21 11:55:35;;;;;;;10.03;6.43;;;20.30;67.30;;;;;;4995895;28;20514;-77
2024/02/21 11:58:05;;;;;;;11.27;5.90;;;20.40;67.60;;;;;;5012983;28;20482;-76
2024/02/21 12:00:32;;;;;;;11.43;6.37;;;20.40;67.10;;;;;;5016701;28;20463;-79
2024/02/21 12:03:01;;;;;;;11.83;6.20;;;20.50;66.60;;;;;;5025833;28;20454;-80
2024/02/21 12:05:30;;;;;;;7.90;4.97;;;20.50;66.80;;;;;;5006480;28;20457;-80
2024/02/21 12:07:58;;;;;;;11.90;6.50;;;20.50;66.70;;;;;;5017591;28;20479;-79
2024/02/21 12:10:27;;;;;;;9.47;5.80;;;20.40;66.30;;;;;;5021137;28;20507;-79
2024/02/21 12:12:58;;;;;;;8.67;5.73;;;20.50;66.40;;;;;;5020883;28;20432;-79
2024/02/21 12:15:27;;;;;;;8.20;5.30;;;20.40;66.30;;;;;;5018461;28;20532;-80
2024/02/21 12:17:55;;;;;;;7.57;5.37;;;20.40;66.00;;;;;;5019955;28;20443;-79
2024/02/21 12:20:23;;;;;;;7.10;5.30;;;20.40;66.20;;;;;;5018134;28;20449;-79
2024/02/21 12:22:51;;;;;;;12.10;5.60;;;20.30;66.00;;;;;;5007980;28;20451;-79
2024/02/21 12:25:22;;;;;;;10.70;5.70;;;20.30;66.20;;;;;;5018528;28;20530;-78
2024/02/21 12:27:50;;;;;;;7.20;5.07;;;20.40;66.20;;;;;;5017908;28;20477;-79
2024/02/21 12:30:18;;;;;;;11.00;5.50;;;20.40;66.20;;;;;;5017131;28;20511;-79
2024/02/21 12:32:48;;;;;;;6.67;5.00;;;20.30;65.80;;;;;;5019538;28;20472;-79
2024/02/21 12:35:17;;;;;;;7.90;5.10;;;20.30;65.90;;;;;;5020910;28;20468;-78
2024/02/21 12:37:45;;;;;;;10.83;5.33;;;20.40;65.80;;;;;;5022771;28;20441;-79
2024/02/21 12:40:15;;;;;;;7.53;5.27;;;20.30;65.80;;;;;;5025589;28;20456;-80
2024/02/21 12:42:45;;;;;;;9.77;5.27;;;20.30;65.60;;;;;;5024652;28;20455;-79
2024/02/21 12:45:15;;;;;;;11.23;5.43;;;20.30;65.70;;;;;;5025198;28;20451;-80
2024/02/21 12:47:43;;;;;;;5.73;4.17;;;20.30;65.50;;;;;;5026935;28;20436;-80